createdAt,value
2023-05-21T00:01:19.337Z,13.90
2023-05-21T00:04:09.566Z,13.90
2023-05-21T00:06:56.620Z,13.90
2023-05-21T00:09:43.766Z,13.90
2023-05-21T00:12:32.215Z,13.90
2023-05-21T00:15:19.319Z,13.80
2023-05-21T00:18:06.573Z,13.90
2023-05-21T00:20:54.397Z,13.80
2023-05-21T00:23:42.725Z,13.80
2023-05-21T00:26:29.810Z,13.70
2023-05-21T00:29:17.723Z,13.70
2023-05-21T00:32:05.820Z,13.60
2023-05-21T00:34:54.605Z,13.60
2023-05-21T00:37:42.526Z,13.60
2023-05-21T00:40:31.044Z,13.60
2023-05-21T00:43:18.128Z,13.50
2023-05-21T00:46:05.493Z,13.60
2023-05-21T00:48:52.757Z,13.50
2023-05-21T00:51:40.187Z,13.60
2023-05-21T00:54:28.021Z,13.60
2023-05-21T00:57:16.390Z,13.60
2023-05-21T01:00:07.330Z,13.60
2023-05-21T01:02:54.828Z,13.50
2023-05-21T01:05:45.121Z,13.50
2023-05-21T01:08:34.851Z,13.60
2023-05-21T01:11:30.402Z,13.50
2023-05-21T01:14:19.783Z,13.50
2023-05-21T01:17:10.380Z,13.50
2023-05-21T01:19:58.681Z,13.40
2023-05-21T01:22:56.043Z,13.30
2023-05-21T01:25:45.060Z,13.30
2023-05-21T01:28:34.343Z,13.30
2023-05-21T01:31:27.793Z,13.30
2023-05-21T01:34:20.636Z,13.30
2023-05-21T01:37:22.679Z,13.30
2023-05-21T01:40:34.288Z,13.30
2023-05-21T01:43:23.339Z,13.40
2023-05-21T01:46:13.352Z,13.50
2023-05-21T01:49:01.059Z,13.50
2023-05-21T01:51:49.121Z,13.50
2023-05-21T01:54:36.221Z,13.50
2023-05-21T01:57:23.418Z,13.50
2023-05-21T02:00:11.761Z,13.50
2023-05-21T02:03:07.985Z,13.50
2023-05-21T02:05:55.728Z,13.50
2023-05-21T02:08:42.873Z,13.50
2023-05-21T02:11:30.338Z,13.50
2023-05-21T02:14:17.735Z,13.50
2023-05-21T02:17:05.241Z,13.50
2023-05-21T02:19:52.483Z,13.40
2023-05-21T02:22:41.340Z,13.30
2023-05-21T02:25:28.488Z,13.30
2023-05-21T02:28:15.886Z,13.30
2023-05-21T02:31:03.082Z,13.20
2023-05-21T02:33:50.230Z,13.10
2023-05-21T02:36:37.306Z,13.10
2023-05-21T02:39:26.159Z,13.10
2023-05-21T02:42:13.352Z,13.00
2023-05-21T02:45:00.479Z,13.00
2023-05-21T02:47:47.597Z,13.00
2023-05-21T02:50:37.677Z,13.00
2023-05-21T02:53:25.275Z,13.00
2023-05-21T02:56:12.538Z,13.00
2023-05-21T02:58:59.570Z,12.90
2023-05-21T03:01:47.978Z,12.90
2023-05-21T03:04:38.822Z,12.90
2023-05-21T03:07:25.972Z,12.90
2023-05-21T03:10:13.621Z,12.90
2023-05-21T03:13:05.357Z,12.80
2023-05-21T03:15:56.370Z,12.70
2023-05-21T03:18:44.126Z,12.70
2023-05-21T03:21:32.297Z,12.70
2023-05-21T03:24:19.401Z,12.70
2023-05-21T03:27:07.070Z,12.70
2023-05-21T03:29:55.772Z,12.70
2023-05-21T03:32:45.139Z,12.60
2023-05-21T03:35:32.283Z,12.70
2023-05-21T03:38:19.641Z,12.70
2023-05-21T03:41:08.288Z,12.70
2023-05-21T03:43:55.789Z,12.70
2023-05-21T03:46:46.272Z,12.70
2023-05-21T03:49:48.327Z,12.50
2023-05-21T03:52:35.555Z,12.50
2023-05-21T03:55:23.012Z,12.50
2023-05-21T03:58:10.923Z,12.50
2023-05-21T04:00:58.321Z,12.50
2023-05-21T04:03:45.803Z,12.60
2023-05-21T04:06:34.255Z,12.70
2023-05-21T04:09:21.714Z,12.70
2023-05-21T04:12:08.906Z,12.70
2023-05-21T04:14:57.275Z,12.80
2023-05-21T04:17:45.390Z,12.90
2023-05-21T04:20:33.306Z,12.90
2023-05-21T04:23:23.340Z,12.90
2023-05-21T04:26:12.743Z,12.90
2023-05-21T04:29:03.681Z,12.90
2023-05-21T04:31:50.961Z,12.90
2023-05-21T04:34:39.591Z,13.00
2023-05-21T04:37:31.375Z,13.00
2023-05-21T04:40:24.197Z,13.00
2023-05-21T04:43:11.432Z,13.00
2023-05-21T04:45:58.951Z,13.00
2023-05-21T04:48:46.757Z,13.00
2023-05-21T04:51:33.860Z,13.10
2023-05-21T04:54:22.566Z,13.10
2023-05-21T04:57:10.812Z,13.10
2023-05-21T04:59:58.304Z,13.20
2023-05-21T05:02:46.323Z,13.10
2023-05-21T05:05:33.823Z,13.20
2023-05-21T05:08:21.040Z,13.20
2023-05-21T05:11:08.644Z,13.20
2023-05-21T05:13:56.042Z,13.30
2023-05-21T05:16:43.288Z,13.30
2023-05-21T05:19:31.816Z,13.30
2023-05-21T05:22:19.188Z,13.30
2023-05-21T05:25:07.658Z,13.30
2023-05-21T05:27:55.372Z,13.50
2023-05-21T05:30:42.935Z,13.40
2023-05-21T05:33:41.396Z,13.50
2023-05-21T05:36:28.619Z,13.60
2023-05-21T05:39:15.970Z,13.50
2023-05-21T05:42:03.578Z,13.70
2023-05-21T05:44:51.437Z,13.70
2023-05-21T05:47:38.559Z,13.70
2023-05-21T05:50:26.399Z,13.70
2023-05-21T05:53:13.550Z,13.70
2023-05-21T05:56:01.111Z,13.70
2023-05-21T05:58:50.546Z,13.70
2023-05-21T06:01:38.425Z,13.80
2023-05-21T06:04:29.816Z,14.00
2023-05-21T06:07:16.966Z,13.90
2023-05-21T06:10:05.754Z,14.10
2023-05-21T06:12:52.829Z,13.90
2023-05-21T06:15:43.109Z,13.90
2023-05-21T06:18:30.749Z,14.30
2023-05-21T06:21:17.984Z,14.10
2023-05-21T06:24:06.239Z,14.10
2023-05-21T06:26:53.422Z,14.30
2023-05-21T06:29:41.270Z,14.40
2023-05-21T06:32:28.591Z,14.30
2023-05-21T06:35:16.357Z,14.50
2023-05-21T06:38:03.618Z,14.70
2023-05-21T06:40:51.004Z,14.70
2023-05-21T06:43:53.667Z,14.60
2023-05-21T06:47:00.799Z,14.60
2023-05-21T06:49:47.984Z,14.80
2023-05-21T06:52:35.307Z,14.80
2023-05-21T06:55:23.673Z,14.70
2023-05-21T06:58:31.493Z,14.60
2023-05-21T07:01:19.407Z,14.80
2023-05-21T07:04:06.513Z,15.00
2023-05-21T07:06:54.510Z,15.00
2023-05-21T07:09:43.397Z,15.40
2023-05-21T07:12:30.531Z,15.20
2023-05-21T07:15:17.735Z,15.20
2023-05-21T07:18:05.004Z,15.20
2023-05-21T07:20:52.291Z,15.20
2023-05-21T07:23:40.997Z,15.50
2023-05-21T07:26:28.741Z,15.60
2023-05-21T07:29:15.952Z,15.70
2023-05-21T07:32:03.365Z,15.60
2023-05-21T07:34:51.583Z,15.60
2023-05-21T07:37:41.098Z,15.80
2023-05-21T07:40:28.321Z,15.80
2023-05-21T07:43:15.944Z,15.70
2023-05-21T07:46:03.129Z,15.80
2023-05-21T07:48:50.703Z,15.90
2023-05-21T07:51:37.794Z,16.00
2023-05-21T07:54:24.906Z,16.10
2023-05-21T07:57:12.520Z,16.20
2023-05-21T08:00:14.120Z,16.40
2023-05-21T08:03:08.584Z,16.50
2023-05-21T08:05:56.588Z,16.60
2023-05-21T08:08:43.845Z,16.60
2023-05-21T08:11:31.028Z,16.80
2023-05-21T08:14:18.199Z,17.00
2023-05-21T08:17:05.612Z,16.80
2023-05-21T08:19:52.750Z,16.80
2023-05-21T08:22:40.024Z,16.80
2023-05-21T08:25:27.629Z,16.80
2023-05-21T08:28:16.098Z,17.00
2023-05-21T08:31:03.248Z,17.00
2023-05-21T08:33:54.447Z,17.10
2023-05-21T08:36:50.196Z,17.50
2023-05-21T08:39:55.920Z,17.60
2023-05-21T08:42:45.845Z,17.30
2023-05-21T08:45:42.317Z,17.20
2023-05-21T08:48:31.217Z,16.80
2023-05-21T08:51:18.373Z,17.00
2023-05-21T08:54:09.321Z,17.10
2023-05-21T08:56:58.195Z,17.40
2023-05-21T08:59:45.728Z,17.60
2023-05-21T09:02:43.706Z,17.90
2023-05-21T09:05:35.272Z,17.90
2023-05-21T09:08:31.120Z,18.20
2023-05-21T09:11:22.443Z,18.10
2023-05-21T09:14:15.707Z,18.10
2023-05-21T09:17:20.159Z,18.40
2023-05-21T09:20:17.387Z,18.30
2023-05-21T09:23:16.411Z,18.70
2023-05-21T09:26:12.700Z,19.00
2023-05-21T09:29:00.773Z,19.10
2023-05-21T09:31:48.230Z,19.10
2023-05-21T09:34:36.902Z,19.20
2023-05-21T09:37:27.678Z,19.30
2023-05-21T09:40:20.079Z,19.20
2023-05-21T09:43:07.137Z,19.10
2023-05-21T09:45:58.357Z,18.90
2023-05-21T09:48:49.768Z,19.10
2023-05-21T09:51:39.508Z,19.40
2023-05-21T09:54:33.270Z,19.50
2023-05-21T09:57:26.722Z,19.50
2023-05-21T10:00:24.654Z,19.80
2023-05-21T10:03:14.905Z,20.00
2023-05-21T10:06:02.789Z,20.40
2023-05-21T10:08:53.466Z,20.30
2023-05-21T10:11:44.101Z,20.40
2023-05-21T10:14:34.143Z,20.30
2023-05-21T10:17:22.003Z,20.30
2023-05-21T10:20:11.089Z,20.50
2023-05-21T10:22:59.280Z,20.70
2023-05-21T10:25:47.170Z,20.80
2023-05-21T10:28:34.851Z,20.90
2023-05-21T10:31:23.120Z,20.90
2023-05-21T10:34:12.084Z,21.00
2023-05-21T10:37:02.517Z,21.10
2023-05-21T10:39:50.596Z,21.30
2023-05-21T10:43:10.835Z,21.30
2023-05-21T10:45:57.887Z,21.30
2023-05-21T10:49:10.977Z,21.10
2023-05-21T10:52:28.132Z,21.00
2023-05-21T10:55:36.459Z,21.10
2023-05-21T10:59:04.049Z,21.20
2023-05-21T11:01:56.162Z,21.40
2023-05-21T11:04:48.991Z,21.40
2023-05-21T11:07:58.255Z,21.90
2023-05-21T11:10:55.769Z,22.00
2023-05-21T11:13:51.474Z,22.00
2023-05-21T11:16:45.711Z,21.90
2023-05-21T11:19:43.329Z,22.00
2023-05-21T11:22:31.568Z,22.20
2023-05-21T11:25:18.920Z,22.40
2023-05-21T11:28:09.288Z,22.50
2023-05-21T11:31:25.796Z,22.40
2023-05-21T11:34:21.785Z,22.60
2023-05-21T11:37:18.188Z,22.80
2023-05-21T11:40:26.207Z,22.80
2023-05-21T11:43:13.416Z,22.60
2023-05-21T11:46:00.918Z,22.30
2023-05-21T11:48:49.402Z,22.30
2023-05-21T11:51:36.793Z,22.50
2023-05-21T11:54:25.826Z,22.40
2023-05-21T11:57:18.651Z,22.60
2023-05-21T12:00:14.000Z,22.70
2023-05-21T12:03:01.911Z,22.70
2023-05-21T12:05:49.990Z,22.80
2023-05-21T12:08:38.362Z,22.90
2023-05-21T12:11:27.376Z,22.70
2023-05-21T12:14:14.854Z,23.00
2023-05-21T12:17:06.859Z,23.00
2023-05-21T12:19:56.764Z,22.90
2023-05-21T12:22:44.890Z,23.10
2023-05-21T12:25:32.254Z,23.20
2023-05-21T12:28:21.882Z,23.20
2023-05-21T12:31:15.174Z,23.30
2023-05-21T12:34:02.286Z,23.10
2023-05-21T12:36:50.941Z,23.40
2023-05-21T12:39:39.354Z,23.50
2023-05-21T12:42:27.396Z,23.50
2023-05-21T12:45:14.955Z,23.60
2023-05-21T12:48:03.103Z,23.60
2023-05-21T12:50:52.438Z,23.70
2023-05-21T12:53:41.898Z,24.00
2023-05-21T12:56:44.342Z,24.40
2023-05-21T12:59:44.079Z,24.50
2023-05-21T13:02:41.990Z,24.50
2023-05-21T13:05:30.341Z,24.20
2023-05-21T13:08:17.436Z,24.10
2023-05-21T13:11:04.815Z,24.00
2023-05-21T13:13:51.905Z,23.80
2023-05-21T13:16:38.992Z,23.80
2023-05-21T13:19:26.426Z,23.80
2023-05-21T13:22:13.721Z,24.00
2023-05-21T13:25:01.396Z,24.20
2023-05-21T13:27:50.046Z,24.30
2023-05-21T13:30:37.498Z,24.30
2023-05-21T13:33:24.900Z,24.30
2023-05-21T13:36:12.231Z,24.50
2023-05-21T13:38:59.348Z,24.40
2023-05-21T13:41:47.660Z,24.20
2023-05-21T13:44:36.462Z,24.20
2023-05-21T13:47:23.884Z,24.40
2023-05-21T13:50:11.668Z,24.70
2023-05-21T13:52:58.733Z,25.00
2023-05-21T13:55:45.887Z,25.00
2023-05-21T13:58:34.610Z,25.10
2023-05-21T14:01:21.730Z,25.20
2023-05-21T14:04:08.892Z,25.40
2023-05-21T14:06:56.730Z,25.30
2023-05-21T14:09:43.850Z,25.20
2023-05-21T14:12:31.226Z,25.00
2023-05-21T14:15:18.482Z,25.00
2023-05-21T14:18:08.045Z,25.00
2023-05-21T14:25:06.853Z,25.00
2023-05-21T14:27:53.342Z,25.00
2023-05-21T14:30:38.573Z,25.00
2023-05-21T14:33:23.994Z,25.00
2023-05-21T14:36:09.233Z,25.00
2023-05-21T14:38:54.787Z,24.90
2023-05-21T14:41:40.448Z,24.70
2023-05-21T14:44:26.564Z,24.90
2023-05-21T14:47:11.965Z,25.00
2023-05-21T14:49:57.438Z,25.30
2023-05-21T14:52:43.169Z,25.30
2023-05-21T14:55:29.646Z,25.60
2023-05-21T14:58:14.907Z,25.80
2023-05-21T15:01:00.669Z,25.70
2023-05-21T15:03:46.197Z,25.80
2023-05-21T15:06:32.754Z,25.60
2023-05-21T15:09:18.547Z,25.80
2023-05-21T15:12:04.082Z,26.20
2023-05-21T15:14:49.999Z,26.60
2023-05-21T15:17:36.039Z,27.40
2023-05-21T15:20:21.954Z,27.50
2023-05-21T15:23:16.889Z,27.80
2023-05-21T15:26:03.386Z,28.10
2023-05-21T15:28:48.909Z,28.50
2023-05-21T15:31:34.503Z,28.70
2023-05-21T15:34:20.212Z,28.70
2023-05-21T15:37:05.734Z,29.30
2023-05-21T15:39:51.086Z,29.50
2023-05-21T15:42:36.543Z,29.50
2023-05-21T15:45:22.082Z,29.50
2023-05-21T15:48:07.808Z,29.70
2023-05-21T15:50:53.057Z,30.40
2023-05-21T15:53:38.656Z,30.50
2023-05-21T15:56:24.280Z,30.30
2023-05-21T15:59:09.720Z,30.30
2023-05-21T16:01:56.236Z,30.40
2023-05-21T16:04:42.047Z,30.40
2023-05-21T16:07:27.489Z,30.30
2023-05-21T16:10:13.045Z,29.50
2023-05-21T16:12:58.625Z,28.80
2023-05-21T16:15:44.405Z,28.80
2023-05-21T16:18:29.660Z,29.10
2023-05-21T16:21:15.785Z,28.90
2023-05-21T16:24:01.492Z,29.10
2023-05-21T16:26:47.424Z,28.50
2023-05-21T16:29:33.144Z,28.30
2023-05-21T16:32:18.909Z,27.60
2023-05-21T16:35:04.700Z,27.30
2023-05-21T16:37:50.275Z,26.80
2023-05-21T16:40:35.657Z,26.80
2023-05-21T16:43:21.447Z,26.80
2023-05-21T16:46:06.718Z,26.70
2023-05-21T16:48:52.009Z,26.50
2023-05-21T16:51:37.595Z,26.50
2023-05-21T16:54:22.967Z,26.50
2023-05-21T16:57:08.254Z,26.40
2023-05-21T16:59:53.557Z,26.40
2023-05-21T17:02:39.149Z,26.40
2023-05-21T17:05:26.311Z,26.30
2023-05-21T17:08:12.146Z,25.90
2023-05-21T17:10:58.286Z,26.10
2023-05-21T17:13:47.930Z,26.10
2023-05-21T17:16:33.733Z,25.80
2023-05-21T17:19:19.388Z,26.00
2023-05-21T17:22:04.888Z,25.80
2023-05-21T17:24:50.196Z,25.80
2023-05-21T17:27:35.768Z,25.60
2023-05-21T17:30:21.179Z,25.60
2023-05-21T17:33:07.752Z,25.50
2023-05-21T17:35:53.747Z,25.50
2023-05-21T17:38:39.382Z,25.40
2023-05-21T17:41:26.076Z,25.40
2023-05-21T17:44:13.572Z,25.40
2023-05-21T17:46:58.819Z,25.20
2023-05-21T17:49:44.229Z,25.20
2023-05-21T17:52:29.705Z,25.20
2023-05-21T17:55:15.216Z,25.00
2023-05-21T17:58:00.723Z,25.00
2023-05-21T18:00:46.120Z,24.80
2023-05-21T18:03:31.958Z,24.70
2023-05-21T18:06:17.598Z,24.70
2023-05-21T18:09:03.303Z,24.60
2023-05-21T18:11:49.150Z,24.50
2023-05-21T18:14:34.573Z,24.30
2023-05-21T18:17:20.088Z,24.20
2023-05-21T18:20:06.064Z,24.10
2023-05-21T18:22:51.754Z,24.00
2023-05-21T18:25:37.403Z,23.90
2023-05-21T18:28:22.806Z,23.90
2023-05-21T18:31:08.464Z,23.80
2023-05-21T18:33:53.878Z,23.80
2023-05-21T18:36:40.063Z,23.70
2023-05-21T18:39:26.863Z,23.60
2023-05-21T18:42:13.942Z,23.50
2023-05-21T18:45:06.716Z,23.40
2023-05-21T18:47:52.141Z,23.30
2023-05-21T18:50:38.472Z,23.10
2023-05-21T18:53:23.980Z,22.90
2023-05-21T18:56:10.203Z,22.80
2023-05-21T18:58:55.872Z,22.60
2023-05-21T19:01:41.353Z,22.60
2023-05-21T19:04:27.337Z,22.50
2023-05-21T19:07:13.009Z,22.30
2023-05-21T19:10:00.185Z,22.20
2023-05-21T19:12:46.338Z,22.10
2023-05-21T19:15:32.118Z,21.90
2023-05-21T19:18:17.721Z,21.80
2023-05-21T19:21:03.877Z,21.80
2023-05-21T19:23:53.168Z,21.70
2023-05-21T19:26:39.500Z,21.70
2023-05-21T19:29:25.619Z,21.50
2023-05-21T19:32:12.448Z,21.40
2023-05-21T19:34:58.309Z,21.30
2023-05-21T19:37:44.108Z,21.30
2023-05-21T19:40:30.386Z,21.20
2023-05-21T19:43:16.227Z,21.10
2023-05-21T19:46:01.622Z,21.00
2023-05-21T19:48:46.939Z,21.10
2023-05-21T19:51:32.403Z,21.00
2023-05-21T19:54:18.521Z,21.00
2023-05-21T19:57:04.678Z,20.90
2023-05-21T19:59:50.038Z,20.80
2023-05-21T20:02:35.461Z,20.70
2023-05-21T20:05:21.053Z,20.60
2023-05-21T20:08:06.169Z,20.60
2023-05-21T20:10:52.252Z,20.50
2023-05-21T20:13:37.633Z,20.50
2023-05-21T20:16:23.293Z,20.50
2023-05-21T20:19:10.573Z,20.40
2023-05-21T20:21:56.685Z,20.30
2023-05-21T20:24:42.995Z,20.30
2023-05-21T20:27:28.617Z,20.30
2023-05-21T20:30:14.126Z,20.30
2023-05-21T20:33:01.834Z,20.30
2023-05-21T20:35:47.549Z,20.20
2023-05-21T20:38:33.195Z,20.30
2023-05-21T20:41:20.057Z,20.10
2023-05-21T20:44:06.510Z,20.10
2023-05-21T20:46:52.559Z,20.20
2023-05-21T20:49:38.230Z,20.10
2023-05-21T20:52:24.855Z,20.10
2023-05-21T20:55:12.626Z,20.10
2023-05-21T20:57:58.034Z,20.10
2023-05-21T21:00:44.831Z,20.00
2023-05-21T21:03:34.193Z,20.00
2023-05-21T21:06:20.085Z,19.90
2023-05-21T21:09:05.546Z,19.70
2023-05-21T21:11:51.381Z,19.70
2023-05-21T21:14:36.813Z,19.70
2023-05-21T21:17:22.362Z,19.70
2023-05-21T21:20:09.858Z,19.70
2023-05-21T21:22:55.744Z,19.70
2023-05-21T21:25:41.192Z,19.70
2023-05-21T21:28:26.734Z,19.70
2023-05-21T21:31:12.085Z,19.70
2023-05-21T21:33:58.008Z,19.70
2023-05-21T21:36:43.736Z,19.60
2023-05-21T21:39:29.129Z,19.70
2023-05-21T21:42:14.757Z,19.70
2023-05-21T21:45:00.193Z,19.70
2023-05-21T21:47:45.569Z,19.70
2023-05-21T21:50:31.098Z,19.70
2023-05-21T21:53:16.800Z,19.60
2023-05-21T21:56:02.323Z,19.70
2023-05-21T21:58:47.787Z,19.70
2023-05-21T22:01:33.625Z,19.70
2023-05-21T22:04:19.043Z,19.70
2023-05-21T22:07:04.630Z,19.60
2023-05-21T22:09:49.971Z,19.70
2023-05-21T22:12:35.284Z,19.70
2023-05-21T22:15:27.473Z,19.70
2023-05-21T22:18:13.112Z,19.70
2023-05-21T22:20:59.705Z,19.60
2023-05-21T22:23:45.460Z,19.70
2023-05-21T22:26:31.397Z,19.70
2023-05-21T22:29:16.734Z,19.60
2023-05-21T22:32:02.145Z,19.60
2023-05-21T22:34:47.504Z,19.50
2023-05-21T22:37:32.969Z,19.60
2023-05-21T22:40:18.658Z,19.50
2023-05-21T22:43:04.620Z,19.50
2023-05-21T22:45:50.100Z,19.50
2023-05-21T22:48:37.292Z,19.70
2023-05-21T22:51:22.747Z,19.50
2023-05-21T22:54:08.299Z,19.50
2023-05-21T22:56:53.625Z,19.40
2023-05-21T22:59:39.129Z,19.40
2023-05-21T23:02:24.819Z,19.30
2023-05-21T23:05:10.303Z,19.30
2023-05-21T23:07:55.751Z,19.30
2023-05-21T23:10:41.454Z,19.20
2023-05-21T23:13:27.025Z,19.30
2023-05-21T23:16:12.769Z,19.20
2023-05-21T23:18:58.356Z,19.20
2023-05-21T23:21:43.997Z,19.10
2023-05-21T23:24:29.465Z,19.10
2023-05-21T23:27:15.631Z,19.00
2023-05-21T23:30:01.157Z,19.00
2023-05-21T23:32:46.702Z,18.90
2023-05-21T23:35:32.255Z,18.90
2023-05-21T23:38:17.758Z,18.90
2023-05-21T23:41:02.864Z,18.90
2023-05-21T23:43:48.485Z,18.80
2023-05-21T23:46:34.094Z,18.80
2023-05-21T23:49:19.618Z,18.70
2023-05-21T23:52:05.779Z,18.70
2023-05-21T23:54:51.801Z,18.70
2023-05-21T23:57:37.534Z,18.70
